Haslev, Denmark
Current Conditions -  °F | °C
As of 1:20 AM on Friday 28 Nov 2014 (Local Time) from EKAV Reporting Station
Clear Clear  
Wind Chill: 35°   Ceiling: Unl
Heat Index: 45°   Visibility: 6mi
Dew Point: 37°   Wind: 26mph
Humidity: 76%   Direction: 110°ESE
Pressure: 30.18"   Gusts: NA
Location:  55.32°N, 11.96°E
Report Text: EKAV 280020Z AUTO 11023KT 080V140 9999NDV NCD 07/03 Q1022
Loading
Personal Weather Stations






























Interactive Weather Map New forecast layout! Learn more

10-Day Weather Forecast

Advertisements
Track Severe Weather on mobile